sensor_id;sensor_type;location;lat;lon;timestamp;temperature;humidity
37289;DHT22;23174;49.462;11.000;2022-08-23T00:00:09;19.30;99.90
37289;DHT22;23174;49.462;11.000;2022-08-23T00:02:11;19.20;99.90
37289;DHT22;23174;49.462;11.000;2022-08-23T00:04:18;19.30;99.90
37289;DHT22;23174;49.462;11.000;2022-08-23T00:06:19;19.40;99.90
37289;DHT22;23174;49.462;11.000;2022-08-23T00:08:21;19.40;99.90
37289;DHT22;23174;49.462;11.000;2022-08-23T00:10:23;19.50;99.90
37289;DHT22;23174;49.462;11.000;2022-08-23T00:12:24;19.50;99.90
37289;DHT22;23174;49.462;11.000;2022-08-23T00:14:28;19.50;99.90
37289;DHT22;23174;49.462;11.000;2022-08-23T00:16:29;19.50;99.90
37289;DHT22;23174;49.462;11.000;2022-08-23T00:18:30;19.50;99.90
37289;DHT22;23174;49.462;11.000;2022-08-23T00:20:31;19.60;99.90
37289;DHT22;23174;49.462;11.000;2022-08-23T00:22:32;19.50;99.90
37289;DHT22;23174;49.462;11.000;2022-08-23T00:24:33;19.20;99.90
37289;DHT22;23174;49.462;11.000;2022-08-23T00:26:57;18.80;99.90
37289;DHT22;23174;49.462;11.000;2022-08-23T00:28:59;18.60;99.90
37289;DHT22;23174;49.462;11.000;2022-08-23T00:30:59;18.70;99.90
37289;DHT22;23174;49.462;11.000;2022-08-23T00:33:00;18.60;99.90
37289;DHT22;23174;49.462;11.000;2022-08-23T00:35:01;18.50;99.90
37289;DHT22;23174;49.462;11.000;2022-08-23T00:37:03;18.50;99.90
37289;DHT22;23174;49.462;11.000;2022-08-23T00:39:05;18.40;99.90
37289;DHT22;23174;49.462;11.000;2022-08-23T00:41:05;18.40;99.90
37289;DHT22;23174;49.462;11.000;2022-08-23T00:43:09;18.30;99.90
37289;DHT22;23174;49.462;11.000;2022-08-23T00:45:30;18.40;99.90
37289;DHT22;23174;49.462;11.000;2022-08-23T00:47:51;18.40;99.90
37289;DHT22;23174;49.462;11.000;2022-08-23T00:50:11;18.30;99.90
37289;DHT22;23174;49.462;11.000;2022-08-23T00:52:22;18.20;99.90
37289;DHT22;23174;49.462;11.000;2022-08-23T00:54:25;18.20;99.90
37289;DHT22;23174;49.462;11.000;2022-08-23T00:56:29;18.20;99.90
37289;DHT22;23174;49.462;11.000;2022-08-23T00:58:31;18.10;99.90
37289;DHT22;23174;49.462;11.000;2022-08-23T01:00:31;18.00;99.90
37289;DHT22;23174;49.462;11.000;2022-08-23T01:02:36;18.00;99.90
37289;DHT22;23174;49.462;11.000;2022-08-23T01:04:40;17.90;99.90
37289;DHT22;23174;49.462;11.000;2022-08-23T01:07:05;17.90;99.90
37289;DHT22;23174;49.462;11.000;2022-08-23T01:09:12;17.90;99.90
37289;DHT22;23174;49.462;11.000;2022-08-23T01:11:20;17.90;99.90
37289;DHT22;23174;49.462;11.000;2022-08-23T01:13:51;18.00;99.90
37289;DHT22;23174;49.462;11.000;2022-08-23T01:16:01;17.90;99.90
37289;DHT22;23174;49.462;11.000;2022-08-23T01:18:08;17.80;99.90
37289;DHT22;23174;49.462;11.000;2022-08-23T01:20:17;17.70;99.90
37289;DHT22;23174;49.462;11.000;2022-08-23T01:22:41;17.80;99.90
37289;DHT22;23174;49.462;11.000;2022-08-23T01:24:44;17.90;99.90
37289;DHT22;23174;49.462;11.000;2022-08-23T01:26:46;17.80;99.90
37289;DHT22;23174;49.462;11.000;2022-08-23T01:28:47;17.80;99.90
37289;DHT22;23174;49.462;11.000;2022-08-23T01:30:48;17.70;99.90
37289;DHT22;23174;49.462;11.000;2022-08-23T01:32:52;17.60;99.90
37289;DHT22;23174;49.462;11.000;2022-08-23T01:34:53;17.60;99.90
37289;DHT22;23174;49.462;11.000;2022-08-23T01:36:55;17.70;99.90
37289;DHT22;23174;49.462;11.000;2022-08-23T01:38:56;17.60;99.90
37289;DHT22;23174;49.462;11.000;2022-08-23T01:40:56;17.60;99.90
37289;DHT22;23174;49.462;11.000;2022-08-23T01:42:58;17.60;99.90
37289;DHT22;23174;49.462;11.000;2022-08-23T01:44:59;17.60;99.90
37289;DHT22;23174;49.462;11.000;2022-08-23T01:47:00;17.60;99.90
37289;DHT22;23174;49.462;11.000;2022-08-23T01:49:03;17.60;99.90
37289;DHT22;23174;49.462;11.000;2022-08-23T01:51:04;17.60;99.90
37289;DHT22;23174;49.462;11.000;2022-08-23T01:53:07;17.60;99.90
37289;DHT22;23174;49.462;11.000;2022-08-23T01:55:08;17.60;99.90
37289;DHT22;23174;49.462;11.000;2022-08-23T01:57:09;17.60;99.90
37289;DHT22;23174;49.462;11.000;2022-08-23T01:59:10;17.80;99.90
37289;DHT22;23174;49.462;11.000;2022-08-23T02:01:11;18.00;99.90
37289;DHT22;23174;49.462;11.000;2022-08-23T02:03:12;17.90;99.90
37289;DHT22;23174;49.462;11.000;2022-08-23T02:05:13;17.70;99.90
37289;DHT22;23174;49.462;11.000;2022-08-23T02:07:14;17.60;99.90
37289;DHT22;23174;49.462;11.000;2022-08-23T02:09:14;17.60;99.90
37289;DHT22;23174;49.462;11.000;2022-08-23T02:11:17;17.50;99.90
37289;DHT22;23174;49.462;11.000;2022-08-23T02:13:21;17.60;99.90
37289;DHT22;23174;49.462;11.000;2022-08-23T02:15:22;17.60;99.90
37289;DHT22;23174;49.462;11.000;2022-08-23T02:17:23;17.50;99.90
37289;DHT22;23174;49.462;11.000;2022-08-23T02:19:24;17.40;99.90
37289;DHT22;23174;49.462;11.000;2022-08-23T02:21:24;17.40;99.90
37289;DHT22;23174;49.462;11.000;2022-08-23T02:23:26;17.30;99.90
37289;DHT22;23174;49.462;11.000;2022-08-23T02:25:27;17.30;99.90
37289;DHT22;23174;49.462;11.000;2022-08-23T02:27:28;17.30;99.90
37289;DHT22;23174;49.462;11.000;2022-08-23T02:29:29;17.30;99.90
37289;DHT22;23174;49.462;11.000;2022-08-23T02:31:30;17.20;99.90
37289;DHT22;23174;49.462;11.000;2022-08-23T02:33:30;17.10;99.90
37289;DHT22;23174;49.462;11.000;2022-08-23T02:35:31;17.10;99.90
37289;DHT22;23174;49.462;11.000;2022-08-23T02:37:34;17.00;99.90
37289;DHT22;23174;49.462;11.000;2022-08-23T02:39:35;17.00;99.90
37289;DHT22;23174;49.462;11.000;2022-08-23T02:41:36;17.00;99.90
37289;DHT22;23174;49.462;11.000;2022-08-23T02:43:37;17.10;99.90
37289;DHT22;23174;49.462;11.000;2022-08-23T02:45:40;17.00;99.90
37289;DHT22;23174;49.462;11.000;2022-08-23T02:47:40;17.00;99.90
37289;DHT22;23174;49.462;11.000;2022-08-23T02:49:41;16.90;99.90
37289;DHT22;23174;49.462;11.000;2022-08-23T02:51:43;16.90;99.90
37289;DHT22;23174;49.462;11.000;2022-08-23T02:53:43;16.90;99.90
37289;DHT22;23174;49.462;11.000;2022-08-23T02:55:46;17.00;99.90
37289;DHT22;23174;49.462;11.000;2022-08-23T02:57:47;17.10;99.90
37289;DHT22;23174;49.462;11.000;2022-08-23T02:59:47;17.00;99.90
37289;DHT22;23174;49.462;11.000;2022-08-23T03:01:49;16.90;99.90
37289;DHT22;23174;49.462;11.000;2022-08-23T03:03:51;16.80;99.90
37289;DHT22;23174;49.462;11.000;2022-08-23T03:05:52;16.90;99.90
37289;DHT22;23174;49.462;11.000;2022-08-23T03:07:53;16.80;99.90
37289;DHT22;23174;49.462;11.000;2022-08-23T03:09:53;16.70;99.90
37289;DHT22;23174;49.462;11.000;2022-08-23T03:11:54;16.70;99.90
37289;DHT22;23174;49.462;11.000;2022-08-23T03:13:55;16.70;99.90
37289;DHT22;23174;49.462;11.000;2022-08-23T03:15:55;16.70;99.90
37289;DHT22;23174;49.462;11.000;2022-08-23T03:17:56;16.80;99.90
37289;DHT22;23174;49.462;11.000;2022-08-23T03:19:57;16.70;99.90
37289;DHT22;23174;49.462;11.000;2022-08-23T03:21:57;16.80;99.90
37289;DHT22;23174;49.462;11.000;2022-08-23T03:23:58;16.90;99.90
37289;DHT22;23174;49.462;11.000;2022-08-23T03:26:00;16.80;99.90
37289;DHT22;23174;49.462;11.000;2022-08-23T03:28:03;16.80;99.90
37289;DHT22;23174;49.462;11.000;2022-08-23T03:30:06;16.80;99.90
37289;DHT22;23174;49.462;11.000;2022-08-23T03:32:06;16.90;99.90
37289;DHT22;23174;49.462;11.000;2022-08-23T03:34:07;16.80;99.90
37289;DHT22;23174;49.462;11.000;2022-08-23T03:36:10;16.90;99.90
37289;DHT22;23174;49.462;11.000;2022-08-23T03:38:12;16.90;99.90
37289;DHT22;23174;49.462;11.000;2022-08-23T03:40:13;17.00;99.90
37289;DHT22;23174;49.462;11.000;2022-08-23T03:42:14;17.10;99.90
37289;DHT22;23174;49.462;11.000;2022-08-23T03:44:15;17.10;99.90
37289;DHT22;23174;49.462;11.000;2022-08-23T03:46:15;17.20;99.90
37289;DHT22;23174;49.462;11.000;2022-08-23T03:48:23;17.30;99.90
37289;DHT22;23174;49.462;11.000;2022-08-23T03:50:24;17.40;99.90
37289;DHT22;23174;49.462;11.000;2022-08-23T03:52:25;17.10;99.90
37289;DHT22;23174;49.462;11.000;2022-08-23T03:54:26;16.90;99.90
37289;DHT22;23174;49.462;11.000;2022-08-23T03:58:29;16.80;99.90
37289;DHT22;23174;49.462;11.000;2022-08-23T04:00:29;16.70;99.90
37289;DHT22;23174;49.462;11.000;2022-08-23T04:02:30;16.60;99.90
37289;DHT22;23174;49.462;11.000;2022-08-23T04:04:31;16.60;99.90
37289;DHT22;23174;49.462;11.000;2022-08-23T04:06:32;16.10;99.90
37289;DHT22;23174;49.462;11.000;2022-08-23T04:08:33;16.00;99.90
37289;DHT22;23174;49.462;11.000;2022-08-23T04:10:34;15.90;99.90
37289;DHT22;23174;49.462;11.000;2022-08-23T04:12:35;15.90;99.90
37289;DHT22;23174;49.462;11.000;2022-08-23T04:14:35;15.80;99.90
37289;DHT22;23174;49.462;11.000;2022-08-23T04:16:36;15.80;99.90
37289;DHT22;23174;49.462;11.000;2022-08-23T04:18:37;15.80;99.90
37289;DHT22;23174;49.462;11.000;2022-08-23T04:20:37;15.80;99.90
37289;DHT22;23174;49.462;11.000;2022-08-23T04:22:38;16.00;99.90
37289;DHT22;23174;49.462;11.000;2022-08-23T04:24:39;15.80;99.90
37289;DHT22;23174;49.462;11.000;2022-08-23T04:26:40;15.80;99.90
37289;DHT22;23174;49.462;11.000;2022-08-23T04:28:41;16.00;99.90
37289;DHT22;23174;49.462;11.000;2022-08-23T04:30:42;16.00;99.90
37289;DHT22;23174;49.462;11.000;2022-08-23T04:32:45;16.10;99.90
37289;DHT22;23174;49.462;11.000;2022-08-23T04:34:46;16.10;99.90
37289;DHT22;23174;49.462;11.000;2022-08-23T04:36:48;16.00;99.90
37289;DHT22;23174;49.462;11.000;2022-08-23T04:38:49;16.00;99.90
37289;DHT22;23174;49.462;11.000;2022-08-23T04:40:50;15.80;99.90
37289;DHT22;23174;49.462;11.000;2022-08-23T04:43:09;15.70;99.90
37289;DHT22;23174;49.462;11.000;2022-08-23T04:45:09;15.70;99.90
37289;DHT22;23174;49.462;11.000;2022-08-23T04:47:11;15.70;99.90
37289;DHT22;23174;49.462;11.000;2022-08-23T04:49:11;15.70;99.90
37289;DHT22;23174;49.462;11.000;2022-08-23T04:51:12;15.80;99.90
37289;DHT22;23174;49.462;11.000;2022-08-23T04:53:14;15.70;99.90
37289;DHT22;23174;49.462;11.000;2022-08-23T04:55:15;15.70;99.90
37289;DHT22;23174;49.462;11.000;2022-08-23T04:57:16;15.70;99.90
37289;DHT22;23174;49.462;11.000;2022-08-23T04:59:16;15.70;99.90
37289;DHT22;23174;49.462;11.000;2022-08-23T05:01:17;15.70;99.90
37289;DHT22;23174;49.462;11.000;2022-08-23T05:03:18;15.70;99.90
37289;DHT22;23174;49.462;11.000;2022-08-23T05:05:19;15.70;99.90
37289;DHT22;23174;49.462;11.000;2022-08-23T05:07:20;15.70;99.90
37289;DHT22;23174;49.462;11.000;2022-08-23T05:09:20;15.70;99.90
37289;DHT22;23174;49.462;11.000;2022-08-23T05:11:24;15.70;99.90
37289;DHT22;23174;49.462;11.000;2022-08-23T05:13:25;16.00;99.90
37289;DHT22;23174;49.462;11.000;2022-08-23T05:15:25;16.10;99.90
37289;DHT22;23174;49.462;11.000;2022-08-23T05:17:26;16.10;99.90
37289;DHT22;23174;49.462;11.000;2022-08-23T05:19:27;16.30;99.90
37289;DHT22;23174;49.462;11.000;2022-08-23T05:21:27;16.20;99.90
37289;DHT22;23174;49.462;11.000;2022-08-23T05:23:28;16.20;99.90
37289;DHT22;23174;49.462;11.000;2022-08-23T05:25:29;16.20;99.90
37289;DHT22;23174;49.462;11.000;2022-08-23T05:27:48;16.30;99.90
37289;DHT22;23174;49.462;11.000;2022-08-23T05:29:48;16.30;99.90
37289;DHT22;23174;49.462;11.000;2022-08-23T05:31:53;16.40;99.90
37289;DHT22;23174;49.462;11.000;2022-08-23T05:33:54;16.40;99.90
37289;DHT22;23174;49.462;11.000;2022-08-23T05:35:55;16.40;99.90
37289;DHT22;23174;49.462;11.000;2022-08-23T05:37:56;16.50;99.90
37289;DHT22;23174;49.462;11.000;2022-08-23T05:39:59;16.60;99.90
37289;DHT22;23174;49.462;11.000;2022-08-23T05:42:00;16.60;99.90
37289;DHT22;23174;49.462;11.000;2022-08-23T05:44:01;16.60;99.90
37289;DHT22;23174;49.462;11.000;2022-08-23T05:46:07;16.80;99.90
37289;DHT22;23174;49.462;11.000;2022-08-23T05:48:10;16.80;99.90
37289;DHT22;23174;49.462;11.000;2022-08-23T05:50:12;16.70;99.90
37289;DHT22;23174;49.462;11.000;2022-08-23T05:52:13;16.80;99.90
37289;DHT22;23174;49.462;11.000;2022-08-23T05:54:14;16.80;99.90
37289;DHT22;23174;49.462;11.000;2022-08-23T05:56:19;16.90;99.90
37289;DHT22;23174;49.462;11.000;2022-08-23T05:58:20;16.80;99.90
37289;DHT22;23174;49.462;11.000;2022-08-23T06:00:20;16.90;99.90
37289;DHT22;23174;49.462;11.000;2022-08-23T06:02:22;17.00;99.90
37289;DHT22;23174;49.462;11.000;2022-08-23T06:04:22;17.10;99.90
37289;DHT22;23174;49.462;11.000;2022-08-23T06:06:23;17.20;99.90
37289;DHT22;23174;49.462;11.000;2022-08-23T06:08:23;17.30;99.90
37289;DHT22;23174;49.462;11.000;2022-08-23T06:10:25;17.30;99.90
37289;DHT22;23174;49.462;11.000;2022-08-23T06:12:25;17.20;99.90
37289;DHT22;23174;49.462;11.000;2022-08-23T06:14:26;17.10;99.90
37289;DHT22;23174;49.462;11.000;2022-08-23T06:16:36;17.30;99.90
37289;DHT22;23174;49.462;11.000;2022-08-23T06:18:37;17.40;99.90
37289;DHT22;23174;49.462;11.000;2022-08-23T06:20:38;17.30;99.90
37289;DHT22;23174;49.462;11.000;2022-08-23T06:22:38;17.30;99.90
37289;DHT22;23174;49.462;11.000;2022-08-23T06:24:39;17.50;99.90
37289;DHT22;23174;49.462;11.000;2022-08-23T06:26:42;17.50;99.90
37289;DHT22;23174;49.462;11.000;2022-08-23T06:28:46;17.40;99.90
37289;DHT22;23174;49.462;11.000;2022-08-23T06:30:46;17.60;99.90
37289;DHT22;23174;49.462;11.000;2022-08-23T06:32:49;17.90;99.90
37289;DHT22;23174;49.462;11.000;2022-08-23T06:34:49;17.90;99.90
37289;DHT22;23174;49.462;11.000;2022-08-23T06:36:54;17.90;99.90
37289;DHT22;23174;49.462;11.000;2022-08-23T06:38:55;17.80;99.90
37289;DHT22;23174;49.462;11.000;2022-08-23T06:41:05;17.80;99.90
37289;DHT22;23174;49.462;11.000;2022-08-23T06:43:06;17.80;99.90
37289;DHT22;23174;49.462;11.000;2022-08-23T06:45:07;17.80;99.90
37289;DHT22;23174;49.462;11.000;2022-08-23T06:47:08;17.90;99.90
37289;DHT22;23174;49.462;11.000;2022-08-23T06:49:09;17.80;99.90
37289;DHT22;23174;49.462;11.000;2022-08-23T06:53:22;17.90;99.90
37289;DHT22;23174;49.462;11.000;2022-08-23T06:55:23;18.00;99.90
37289;DHT22;23174;49.462;11.000;2022-08-23T06:57:23;18.20;99.90
37289;DHT22;23174;49.462;11.000;2022-08-23T06:59:24;18.30;99.90
37289;DHT22;23174;49.462;11.000;2022-08-23T07:01:30;18.30;99.90
37289;DHT22;23174;49.462;11.000;2022-08-23T07:03:32;18.30;99.90
37289;DHT22;23174;49.462;11.000;2022-08-23T07:05:32;18.20;99.90
37289;DHT22;23174;49.462;11.000;2022-08-23T07:07:33;18.20;99.90
37289;DHT22;23174;49.462;11.000;2022-08-23T07:09:34;18.30;99.90
37289;DHT22;23174;49.462;11.000;2022-08-23T07:11:35;18.40;99.90
37289;DHT22;23174;49.462;11.000;2022-08-23T07:13:36;18.40;99.90
37289;DHT22;23174;49.462;11.000;2022-08-23T07:15:36;18.50;99.90
37289;DHT22;23174;49.462;11.000;2022-08-23T07:17:37;18.60;99.90
37289;DHT22;23174;49.462;11.000;2022-08-23T07:19:37;18.70;99.90
37289;DHT22;23174;49.462;11.000;2022-08-23T07:21:39;18.80;99.90
37289;DHT22;23174;49.462;11.000;2022-08-23T07:23:40;18.90;99.90
37289;DHT22;23174;49.462;11.000;2022-08-23T07:25:42;19.00;99.90
37289;DHT22;23174;49.462;11.000;2022-08-23T07:27:43;18.90;99.90
37289;DHT22;23174;49.462;11.000;2022-08-23T07:29:44;19.00;99.90
37289;DHT22;23174;49.462;11.000;2022-08-23T07:31:51;18.90;99.90
37289;DHT22;23174;49.462;11.000;2022-08-23T07:33:54;18.90;99.90
37289;DHT22;23174;49.462;11.000;2022-08-23T07:35:55;19.00;99.90
37289;DHT22;23174;49.462;11.000;2022-08-23T07:37:56;19.20;99.90
37289;DHT22;23174;49.462;11.000;2022-08-23T07:39:57;19.20;99.90
37289;DHT22;23174;49.462;11.000;2022-08-23T07:41:59;19.30;99.90
37289;DHT22;23174;49.462;11.000;2022-08-23T07:44:02;19.30;99.90
37289;DHT22;23174;49.462;11.000;2022-08-23T07:46:03;19.40;99.90
37289;DHT22;23174;49.462;11.000;2022-08-23T07:48:05;19.40;99.90
37289;DHT22;23174;49.462;11.000;2022-08-23T07:50:06;19.40;99.90
37289;DHT22;23174;49.462;11.000;2022-08-23T07:52:07;19.50;99.90
37289;DHT22;23174;49.462;11.000;2022-08-23T07:54:09;19.50;99.90
37289;DHT22;23174;49.462;11.000;2022-08-23T07:56:12;19.50;99.90
37289;DHT22;23174;49.462;11.000;2022-08-23T07:58:13;19.60;99.90
37289;DHT22;23174;49.462;11.000;2022-08-23T08:00:14;19.70;99.90
37289;DHT22;23174;49.462;11.000;2022-08-23T08:02:15;19.70;99.90
37289;DHT22;23174;49.462;11.000;2022-08-23T08:04:15;19.80;99.90
37289;DHT22;23174;49.462;11.000;2022-08-23T08:06:23;19.80;99.90
37289;DHT22;23174;49.462;11.000;2022-08-23T08:08:24;20.00;99.90
37289;DHT22;23174;49.462;11.000;2022-08-23T08:10:25;20.00;99.90
37289;DHT22;23174;49.462;11.000;2022-08-23T08:12:27;19.90;99.90
37289;DHT22;23174;49.462;11.000;2022-08-23T08:14:28;19.90;99.90
37289;DHT22;23174;49.462;11.000;2022-08-23T08:16:34;20.00;99.90
37289;DHT22;23174;49.462;11.000;2022-08-23T08:18:36;20.00;99.90
37289;DHT22;23174;49.462;11.000;2022-08-23T08:20:42;20.00;99.90
37289;DHT22;23174;49.462;11.000;2022-08-23T08:22:43;20.00;99.90
37289;DHT22;23174;49.462;11.000;2022-08-23T08:24:45;20.00;99.90
37289;DHT22;23174;49.462;11.000;2022-08-23T08:26:46;20.00;99.90
37289;DHT22;23174;49.462;11.000;2022-08-23T08:28:46;20.10;99.90
37289;DHT22;23174;49.462;11.000;2022-08-23T08:30:47;20.10;99.90
37289;DHT22;23174;49.462;11.000;2022-08-23T08:32:48;20.10;99.90
37289;DHT22;23174;49.462;11.000;2022-08-23T08:34:48;20.30;99.90
37289;DHT22;23174;49.462;11.000;2022-08-23T08:36:52;20.40;99.90
37289;DHT22;23174;49.462;11.000;2022-08-23T08:38:53;20.40;99.90
37289;DHT22;23174;49.462;11.000;2022-08-23T08:41:15;20.40;99.90
37289;DHT22;23174;49.462;11.000;2022-08-23T08:45:31;20.30;99.90
37289;DHT22;23174;49.462;11.000;2022-08-23T08:47:52;20.40;99.90
37289;DHT22;23174;49.462;11.000;2022-08-23T08:52:33;20.70;99.90
37289;DHT22;23174;49.462;11.000;2022-08-23T08:54:36;20.60;99.90
37289;DHT22;23174;49.462;11.000;2022-08-23T08:56:38;20.60;99.90
37289;DHT22;23174;49.462;11.000;2022-08-23T08:58:47;20.80;99.90
37289;DHT22;23174;49.462;11.000;2022-08-23T09:00:48;21.00;99.90
37289;DHT22;23174;49.462;11.000;2022-08-23T09:02:50;21.10;99.90
37289;DHT22;23174;49.462;11.000;2022-08-23T09:04:51;21.00;99.90
37289;DHT22;23174;49.462;11.000;2022-08-23T09:09:33;21.30;99.90
37289;DHT22;23174;49.462;11.000;2022-08-23T09:14:15;21.20;99.90
37289;DHT22;23174;49.462;11.000;2022-08-23T09:18:19;21.20;99.90
37289;DHT22;23174;49.462;11.000;2022-08-23T09:20:22;21.20;99.90
37289;DHT22;23174;49.462;11.000;2022-08-23T09:22:44;21.30;99.90
37289;DHT22;23174;49.462;11.000;2022-08-23T09:24:46;21.40;99.90
37289;DHT22;23174;49.462;11.000;2022-08-23T09:26:47;21.40;99.90
37289;DHT22;23174;49.462;11.000;2022-08-23T09:28:50;21.30;99.90
37289;DHT22;23174;49.462;11.000;2022-08-23T09:30:54;21.30;99.90
37289;DHT22;23174;49.462;11.000;2022-08-23T09:33:14;21.30;99.90
37289;DHT22;23174;49.462;11.000;2022-08-23T09:35:24;21.40;99.90
37289;DHT22;23174;49.462;11.000;2022-08-23T09:37:25;21.50;99.90
37289;DHT22;23174;49.462;11.000;2022-08-23T09:39:29;21.50;99.90
37289;DHT22;23174;49.462;11.000;2022-08-23T09:41:38;21.70;99.90
37289;DHT22;23174;49.462;11.000;2022-08-23T09:43:44;21.80;99.90
37289;DHT22;23174;49.462;11.000;2022-08-23T09:47:48;21.90;99.90
37289;DHT22;23174;49.462;11.000;2022-08-23T09:49:49;22.00;99.90
37289;DHT22;23174;49.462;11.000;2022-08-23T09:51:52;22.20;99.90
37289;DHT22;23174;49.462;11.000;2022-08-23T09:54:15;22.10;99.90
37289;DHT22;23174;49.462;11.000;2022-08-23T09:56:22;22.10;99.90
37289;DHT22;23174;49.462;11.000;2022-08-23T09:58:36;22.10;99.90
37289;DHT22;23174;49.462;11.000;2022-08-23T10:00:37;22.10;99.90
37289;DHT22;23174;49.462;11.000;2022-08-23T10:02:38;22.00;99.90
37289;DHT22;23174;49.462;11.000;2022-08-23T10:07:41;22.10;99.90
37289;DHT22;23174;49.462;11.000;2022-08-23T10:09:42;22.20;99.90
37289;DHT22;23174;49.462;11.000;2022-08-23T10:11:44;22.20;99.90
37289;DHT22;23174;49.462;11.000;2022-08-23T10:13:45;22.10;99.90
37289;DHT22;23174;49.462;11.000;2022-08-23T10:18:04;22.40;99.90
37289;DHT22;23174;49.462;11.000;2022-08-23T10:20:25;22.70;99.90
37289;DHT22;23174;49.462;11.000;2022-08-23T10:22:45;22.70;99.90
37289;DHT22;23174;49.462;11.000;2022-08-23T10:25:02;22.40;99.90
37289;DHT22;23174;49.462;11.000;2022-08-23T10:27:21;22.40;99.90
37289;DHT22;23174;49.462;11.000;2022-08-23T10:29:46;22.70;99.90
37289;DHT22;23174;49.462;11.000;2022-08-23T10:32:23;22.60;99.90
37289;DHT22;23174;49.462;11.000;2022-08-23T10:34:40;22.60;99.90
37289;DHT22;23174;49.462;11.000;2022-08-23T10:36:59;22.80;99.90
37289;DHT22;23174;49.462;11.000;2022-08-23T10:39:06;22.80;99.90
37289;DHT22;23174;49.462;11.000;2022-08-23T10:41:42;22.80;99.90
37289;DHT22;23174;49.462;11.000;2022-08-23T10:46:06;23.00;99.90
37289;DHT22;23174;49.462;11.000;2022-08-23T10:48:15;22.90;99.90
37289;DHT22;23174;49.462;11.000;2022-08-23T10:50:19;22.80;99.90
37289;DHT22;23174;49.462;11.000;2022-08-23T10:54:52;22.90;99.90
37289;DHT22;23174;49.462;11.000;2022-08-23T10:57:05;22.80;99.90
37289;DHT22;23174;49.462;11.000;2022-08-23T10:59:13;22.90;99.60
37289;DHT22;23174;49.462;11.000;2022-08-23T11:01:24;23.00;99.70
37289;DHT22;23174;49.462;11.000;2022-08-23T11:08:36;23.20;98.70
37289;DHT22;23174;49.462;11.000;2022-08-23T11:10:47;23.20;97.80
37289;DHT22;23174;49.462;11.000;2022-08-23T11:17:10;23.30;97.60
37289;DHT22;23174;49.462;11.000;2022-08-23T11:19:44;23.30;96.50
37289;DHT22;23174;49.462;11.000;2022-08-23T11:21:43;23.50;95.80
37289;DHT22;23174;49.462;11.000;2022-08-23T11:25:51;23.70;95.00
37289;DHT22;23174;49.462;11.000;2022-08-23T11:32:39;23.70;94.60
37289;DHT22;23174;49.462;11.000;2022-08-23T11:35:04;23.50;94.70
37289;DHT22;23174;49.462;11.000;2022-08-23T11:39:23;23.80;94.60
37289;DHT22;23174;49.462;11.000;2022-08-23T11:41:28;23.90;95.40
37289;DHT22;23174;49.462;11.000;2022-08-23T11:43:36;23.90;95.30
37289;DHT22;23174;49.462;11.000;2022-08-23T11:45:43;24.20;94.70
37289;DHT22;23174;49.462;11.000;2022-08-23T11:47:46;24.20;94.20
37289;DHT22;23174;49.462;11.000;2022-08-23T11:50:56;24.10;94.40
37289;DHT22;23174;49.462;11.000;2022-08-23T11:55:12;24.30;94.10
37289;DHT22;23174;49.462;11.000;2022-08-23T12:00:02;24.00;94.70
37289;DHT22;23174;49.462;11.000;2022-08-23T12:02:38;24.10;94.90
37289;DHT22;23174;49.462;11.000;2022-08-23T12:04:46;24.40;94.20
37289;DHT22;23174;49.462;11.000;2022-08-23T12:06:52;24.30;94.10
37289;DHT22;23174;49.462;11.000;2022-08-23T12:13:58;24.20;94.10
37289;DHT22;23174;49.462;11.000;2022-08-23T12:18:13;24.40;94.50
37289;DHT22;23174;49.462;11.000;2022-08-23T12:20:24;24.60;93.80
37289;DHT22;23174;49.462;11.000;2022-08-23T12:22:29;24.40;93.20
37289;DHT22;23174;49.462;11.000;2022-08-23T12:24:43;24.30;93.60
37289;DHT22;23174;49.462;11.000;2022-08-23T12:27:09;24.20;94.00
37289;DHT22;23174;49.462;11.000;2022-08-23T12:29:28;24.20;94.00
37289;DHT22;23174;49.462;11.000;2022-08-23T12:37:08;24.20;94.20
37289;DHT22;23174;49.462;11.000;2022-08-23T12:39:23;24.40;94.60
37289;DHT22;23174;49.462;11.000;2022-08-23T12:41:30;24.40;94.60
37289;DHT22;23174;49.462;11.000;2022-08-23T12:43:31;24.50;94.80
37289;DHT22;23174;49.462;11.000;2022-08-23T12:45:40;24.60;94.40
37289;DHT22;23174;49.462;11.000;2022-08-23T12:47:43;24.60;94.10
37289;DHT22;23174;49.462;11.000;2022-08-23T12:51:59;24.80;94.50
37289;DHT22;23174;49.462;11.000;2022-08-23T12:54:12;24.90;94.20
37289;DHT22;23174;49.462;11.000;2022-08-23T12:56:23;25.10;94.20
37289;DHT22;23174;49.462;11.000;2022-08-23T12:58:29;24.90;93.90
37289;DHT22;23174;49.462;11.000;2022-08-23T13:00:38;24.60;94.10
37289;DHT22;23174;49.462;11.000;2022-08-23T13:02:43;24.50;95.30
37289;DHT22;23174;49.462;11.000;2022-08-23T13:04:46;24.60;94.50
37289;DHT22;23174;49.462;11.000;2022-08-23T13:06:55;25.00;94.20
37289;DHT22;23174;49.462;11.000;2022-08-23T13:09:12;25.50;94.10
37289;DHT22;23174;49.462;11.000;2022-08-23T13:11:18;25.50;93.90
37289;DHT22;23174;49.462;11.000;2022-08-23T13:13:24;25.10;93.90
37289;DHT22;23174;49.462;11.000;2022-08-23T13:15:45;25.00;93.90
37289;DHT22;23174;49.462;11.000;2022-08-23T13:17:46;24.90;93.40
37289;DHT22;23174;49.462;11.000;2022-08-23T13:19:50;24.90;93.40
37289;DHT22;23174;49.462;11.000;2022-08-23T13:22:18;24.80;93.20
37289;DHT22;23174;49.462;11.000;2022-08-23T13:24:37;24.90;92.70
37289;DHT22;23174;49.462;11.000;2022-08-23T13:26:42;25.00;93.40
37289;DHT22;23174;49.462;11.000;2022-08-23T13:29:08;25.10;92.30
37289;DHT22;23174;49.462;11.000;2022-08-23T13:31:09;24.90;92.50
37289;DHT22;23174;49.462;11.000;2022-08-23T13:35:34;25.30;92.60
37289;DHT22;23174;49.462;11.000;2022-08-23T13:37:35;25.40;92.30
37289;DHT22;23174;49.462;11.000;2022-08-23T13:39:36;25.30;92.50
37289;DHT22;23174;49.462;11.000;2022-08-23T13:41:36;25.20;92.60
37289;DHT22;23174;49.462;11.000;2022-08-23T13:45:50;25.30;92.20
37289;DHT22;23174;49.462;11.000;2022-08-23T13:48:12;25.30;92.40
37289;DHT22;23174;49.462;11.000;2022-08-23T13:50:16;25.30;93.20
37289;DHT22;23174;49.462;11.000;2022-08-23T13:52:17;25.30;92.70
37289;DHT22;23174;49.462;11.000;2022-08-23T13:54:18;25.50;92.50
37289;DHT22;23174;49.462;11.000;2022-08-23T13:56:19;25.40;92.50
37289;DHT22;23174;49.462;11.000;2022-08-23T13:58:31;25.30;92.10
37289;DHT22;23174;49.462;11.000;2022-08-23T14:00:33;25.20;92.40
37289;DHT22;23174;49.462;11.000;2022-08-23T14:02:33;25.10;92.50
37289;DHT22;23174;49.462;11.000;2022-08-23T14:04:34;25.00;92.60